Time;durP1;ratioP1;P1;durP2;ratioP2;P2;SDS_P1;SDS_P2;PMS_P1;PMS_P2;Temp;Humidity;BMP_temperature;BMP_pressure;BME280_temperature;BME280_humidity;BME280_pressure;Samples;Min_cycle;Max_cycle;Signal;HPM_P1;HPM_P2
2022/11/18 00:01:20;;;;;;;3.30;1.38;;;;;;;;;;5086363;28;20032;-74
2022/11/18 00:03:47;;;;;;;1.95;1.42;;;;;;;;;;5086170;28;20035;-74
2022/11/18 00:06:15;;;;;;;3.38;1.40;;;;;;;;;;5077086;28;20028;-74
2022/11/18 00:08:41;;;;;;;2.33;1.35;;;;;;;;;;5066566;28;20679;-74
2022/11/18 00:11:08;;;;;;;3.15;1.40;;;;;;;;;;5066033;28;20120;-74
2022/11/18 00:16:17;;;;;;;3.60;1.45;;;;;;;;;;5065804;28;20467;-73
2022/11/18 00:18:43;;;;;;;2.70;1.20;;;;;;;;;;5064806;28;20028;-73
2022/11/18 00:21:10;;;;;;;3.83;1.52;;;;;;;;;;5066047;28;20308;-73
2022/11/18 00:23:37;;;;;;;2.00;1.45;;;;;;;;;;5077911;28;20135;-73
2022/11/18 00:26:12;;;;;;;2.15;1.50;;;;;;;;;;5087968;28;20131;-74
2022/11/18 00:28:38;;;;;;;1.88;1.27;;;;;;;;;;5090378;28;20119;-74
2022/11/18 00:31:13;;;;;;;2.00;1.30;;;;;;;;;;5086424;28;20776;-73
2022/11/18 00:33:38;;;;;;;5.32;1.92;;;;;;;;;;5088278;28;20035;-74
2022/11/18 00:36:06;;;;;;;2.47;1.30;;;;;;;;;;5090080;28;20024;-74
2022/11/18 00:38:31;;;;;;;3.53;1.48;;;;;;;;;;5088379;28;20020;-74
2022/11/18 00:41:12;;;;;;;2.72;1.45;;;;;;;;;;5087193;28;20073;-73
2022/11/18 00:43:37;;;;;;;3.33;1.60;;;;;;;;;;5086817;28;20063;-73
2022/11/18 00:46:04;;;;;;;3.75;1.60;;;;;;;;;;5088079;28;20028;-74
2022/11/18 00:48:30;;;;;;;3.35;1.70;;;;;;;;;;5088803;28;20036;-73
2022/11/18 00:51:14;;;;;;;5.93;1.60;;;;;;;;;;5088457;28;20523;-74
2022/11/18 00:53:40;;;;;;;3.33;2.05;;;;;;;;;;5089595;28;20404;-73
2022/11/18 00:56:06;;;;;;;4.20;1.73;;;;;;;;;;5087920;28;20028;-75
2022/11/18 00:58:32;;;;;;;3.42;1.83;;;;;;;;;;5089307;28;20032;-74
2022/11/18 01:00:58;;;;;;;4.80;2.08;;;;;;;;;;5087208;28;20512;-73
2022/11/18 01:03:24;;;;;;;2.85;1.60;;;;;;;;;;5089941;28;20052;-74
2022/11/18 01:05:49;;;;;;;4.20;1.42;;;;;;;;;;5089402;28;20107;-74
2022/11/18 01:08:16;;;;;;;3.42;1.65;;;;;;;;;;5089363;28;20107;-73
2022/11/18 01:10:42;;;;;;;3.80;1.75;;;;;;;;;;5092258;28;20096;-73
2022/11/18 01:13:21;;;;;;;3.60;1.58;;;;;;;;;;5087817;28;20040;-73
2022/11/18 01:15:53;;;;;;;4.18;2.05;;;;;;;;;;5088400;28;20397;-73
2022/11/18 01:18:22;;;;;;;5.10;1.70;;;;;;;;;;5088948;28;20040;-74
2022/11/18 01:20:47;;;;;;;3.22;2.00;;;;;;;;;;5089321;28;20027;-73
2022/11/18 01:23:14;;;;;;;2.80;1.65;;;;;;;;;;5085859;28;20555;-73
2022/11/18 01:25:42;;;;;;;5.18;2.38;;;;;;;;;;5087059;28;20044;-73
2022/11/18 01:28:07;;;;;;;4.45;1.88;;;;;;;;;;5089078;28;20077;-74
2022/11/18 01:30:34;;;;;;;8.13;1.88;;;;;;;;;;5088296;28;20036;-74
2022/11/18 01:33:00;;;;;;;3.45;1.90;;;;;;;;;;5086776;28;20024;-74
2022/11/18 01:35:26;;;;;;;4.07;2.15;;;;;;;;;;5088264;28;20020;-74
2022/11/18 01:37:51;;;;;;;3.45;1.70;;;;;;;;;;5087940;28;20051;-74
2022/11/18 01:40:16;;;;;;;3.42;1.92;;;;;;;;;;5086844;28;20043;-74
2022/11/18 01:42:41;;;;;;;2.45;1.60;;;;;;;;;;5088793;28;20123;-74
2022/11/18 01:45:30;;;;;;;6.00;2.17;;;;;;;;;;5087817;28;20012;-74
2022/11/18 01:48:32;;;;;;;5.28;1.80;;;;;;;;;;5087782;28;20489;-73
2022/11/18 01:51:03;;;;;;;9.45;2.15;;;;;;;;;;5067198;28;20071;-74
2022/11/18 01:53:36;;;;;;;5.57;1.88;;;;;;;;;;5068964;28;20046;-74
2022/11/18 01:56:08;;;;;;;3.42;1.77;;;;;;;;;;5066652;28;20041;-73
2022/11/18 01:58:45;;;;;;;3.60;1.90;;;;;;;;;;5074138;28;20040;-74
2022/11/18 02:01:10;;;;;;;2.63;1.80;;;;;;;;;;5088211;28;20032;-74
2022/11/18 02:03:36;;;;;;;5.85;2.00;;;;;;;;;;5088405;28;20082;-74
2022/11/18 02:06:03;;;;;;;2.85;1.70;;;;;;;;;;5088194;28;20016;-74
2022/11/18 02:08:30;;;;;;;4.72;2.10;;;;;;;;;;5088414;28;20027;-73
2022/11/18 02:10:55;;;;;;;5.35;2.17;;;;;;;;;;5088438;28;20028;-73
2022/11/18 02:13:22;;;;;;;4.60;1.95;;;;;;;;;;5088115;28;20036;-73
2022/11/18 02:16:05;;;;;;;2.95;1.80;;;;;;;;;;5088546;28;20024;-73
2022/11/18 02:18:47;;;;;;;4.25;2.13;;;;;;;;;;5088118;28;20040;-73
2022/11/18 02:21:49;;;;;;;3.13;1.90;;;;;;;;;;5084395;28;20657;-73
2022/11/18 02:24:26;;;;;;;3.05;1.52;;;;;;;;;;5086154;28;20040;-73
2022/11/18 02:26:57;;;;;;;3.60;1.85;;;;;;;;;;5086362;28;20048;-73
2022/11/18 02:29:29;;;;;;;4.45;1.92;;;;;;;;;;5088792;28;20614;-73
2022/11/18 02:32:03;;;;;;;6.35;1.70;;;;;;;;;;5087691;28;20036;-73
2022/11/18 02:34:37;;;;;;;;;;;;;;;;;;5084280;28;20028;-73
2022/11/18 02:37:15;;;;;;;2.75;1.55;;;;;;;;;;5086396;28;19915;-73
2022/11/18 02:39:50;;;;;;;5.15;1.77;;;;;;;;;;5087525;28;20513;-73
2022/11/18 02:42:15;;;;;;;2.65;1.63;;;;;;;;;;5086990;28;20036;-74
2022/11/18 02:44:44;;;;;;;4.05;1.73;;;;;;;;;;5087195;28;20031;-74
2022/11/18 02:47:14;;;;;;;3.40;1.85;;;;;;;;;;5085654;28;20029;-74
2022/11/18 02:49:45;;;;;;;3.38;1.83;;;;;;;;;;5085862;28;20032;-74
2022/11/18 02:52:11;;;;;;;2.65;1.63;;;;;;;;;;5087260;28;20060;-73
2022/11/18 02:54:40;;;;;;;3.83;1.60;;;;;;;;;;5084392;28;20103;-73
2022/11/18 02:57:06;;;;;;;2.58;1.50;;;;;;;;;;5087419;28;20485;-73
2022/11/18 02:59:32;;;;;;;3.60;1.70;;;;;;;;;;5087825;28;20016;-73
2022/11/18 03:01:57;;;;;;;6.00;1.98;;;;;;;;;;5087187;28;20024;-73
2022/11/18 03:04:24;;;;;;;3.50;1.83;;;;;;;;;;5085529;28;20052;-73
2022/11/18 03:07:01;;;;;;;3.25;1.55;;;;;;;;;;5085866;28;20039;-73
2022/11/18 03:09:29;;;;;;;4.30;1.60;;;;;;;;;;5087358;28;20028;-73
2022/11/18 03:12:19;;;;;;;2.50;1.50;;;;;;;;;;5085952;28;20499;-73
2022/11/18 03:15:17;;;;;;;4.78;1.50;;;;;;;;;;5085740;28;20531;-73
2022/11/18 03:18:01;;;;;;;6.10;1.70;;;;;;;;;;5087228;28;20038;-73
2022/11/18 03:20:33;;;;;;;2.75;1.50;;;;;;;;;;5081804;28;20581;-73
2022/11/18 03:23:17;;;;;;;5.00;1.48;;;;;;;;;;5085607;28;20040;-74
2022/11/18 03:26:17;;;;;;;3.05;1.45;;;;;;;;;;5085951;28;20048;-75
2022/11/18 03:28:51;;;;;;;2.22;1.27;;;;;;;;;;5077212;28;20479;-73
2022/11/18 03:31:34;;;;;;;6.65;1.77;;;;;;;;;;5084826;28;20496;-74
2022/11/18 03:34:25;;;;;;;4.93;1.83;;;;;;;;;;5084379;28;20089;-74
2022/11/18 03:36:55;;;;;;;2.58;1.45;;;;;;;;;;5086563;28;20044;-73
2022/11/18 03:39:22;;;;;;;3.10;1.40;;;;;;;;;;5085096;28;20467;-74
2022/11/18 03:41:53;;;;;;;3.25;1.70;;;;;;;;;;5086454;28;20039;-74
2022/11/18 03:44:23;;;;;;;2.65;1.63;;;;;;;;;;5088412;28;20120;-73
2022/11/18 03:46:58;;;;;;;2.95;1.63;;;;;;;;;;5088326;28;20523;-74
2022/11/18 03:49:32;;;;;;;6.95;1.80;;;;;;;;;;5083726;28;20435;-74
2022/11/18 03:52:06;;;;;;;3.55;1.77;;;;;;;;;;5075685;28;20042;-73
2022/11/18 03:54:35;;;;;;;2.35;1.48;;;;;;;;;;5100851;28;20050;-74
2022/11/18 03:57:10;;;;;;;4.80;2.00;;;;;;;;;;5086110;28;20031;-74
2022/11/18 03:59:44;;;;;;;3.42;1.88;;;;;;;;;;5086433;28;20028;-74
2022/11/18 04:02:20;;;;;;;2.90;1.70;;;;;;;;;;5085810;28;20039;-73
2022/11/18 04:04:48;;;;;;;2.78;1.60;;;;;;;;;;5084876;28;20043;-73
2022/11/18 04:07:16;;;;;;;3.85;1.58;;;;;;;;;;5084820;28;20036;-74
2022/11/18 04:09:46;;;;;;;3.15;1.70;;;;;;;;;;5084679;28;20040;-74
2022/11/18 04:12:16;;;;;;;3.70;1.80;;;;;;;;;;5082557;28;20044;-74
2022/11/18 04:14:44;;;;;;;4.40;1.80;;;;;;;;;;5082684;28;20051;-74
2022/11/18 04:17:12;;;;;;;3.30;1.65;;;;;;;;;;5084781;28;20130;-74
2022/11/18 04:19:38;;;;;;;3.05;1.67;;;;;;;;;;5085853;28;20028;-74
2022/11/18 04:22:03;;;;;;;6.35;1.60;;;;;;;;;;5084293;28;20046;-73
2022/11/18 04:24:29;;;;;;;2.00;1.40;;;;;;;;;;5082185;28;20048;-73
2022/11/18 04:26:54;;;;;;;4.13;1.70;;;;;;;;;;5085402;28;20048;-73
2022/11/18 04:29:20;;;;;;;3.92;1.40;;;;;;;;;;5084969;28;20028;-74
2022/11/18 04:31:45;;;;;;;4.60;1.63;;;;;;;;;;5083614;28;20048;-74
2022/11/18 04:34:10;;;;;;;3.28;1.70;;;;;;;;;;5085168;28;20499;-73
2022/11/18 04:36:35;;;;;;;2.33;1.10;;;;;;;;;;5086207;28;20421;-74
2022/11/18 04:39:01;;;;;;;3.03;1.02;;;;;;;;;;5085880;28;20054;-73
2022/11/18 04:41:54;;;;;;;1.90;1.10;;;;;;;;;;5086282;28;20119;-74
2022/11/18 04:44:11;;;;;;;3.22;1.30;;;;;;;;;;5085198;28;20780;-73
2022/11/18 04:46:44;;;;;;;4.90;1.85;;;;;;;;;;5084647;28;20135;-74
2022/11/18 04:49:12;;;;;;;5.82;1.67;;;;;;;;;;5084608;28;20036;-74
2022/11/18 04:51:37;;;;;;;3.50;1.58;;;;;;;;;;5085673;28;20032;-73
2022/11/18 04:54:04;;;;;;;5.80;1.95;;;;;;;;;;5083959;28;20028;-73
2022/11/18 04:56:29;;;;;;;2.92;1.42;;;;;;;;;;5086213;28;20020;-74
2022/11/18 04:58:54;;;;;;;3.47;1.20;;;;;;;;;;5083809;28;20055;-73
2022/11/18 05:01:20;;;;;;;5.10;1.88;;;;;;;;;;5076901;28;20032;-73
2022/11/18 05:03:45;;;;;;;8.88;2.00;;;;;;;;;;5083530;28;20040;-74
2022/11/18 05:06:10;;;;;;;6.18;1.90;;;;;;;;;;5085903;28;20116;-74
2022/11/18 05:08:35;;;;;;;2.35;1.65;;;;;;;;;;5084380;28;20181;-74
2022/11/18 05:13:51;;;;;;;2.00;1.30;;;;;;;;;;5065085;28;20190;-73
2022/11/18 05:16:16;;;;;;;4.20;1.90;;;;;;;;;;5089419;28;20143;-73
2022/11/18 05:18:42;;;;;;;3.95;1.38;;;;;;;;;;5087831;28;20036;-74
2022/11/18 05:21:07;;;;;;;1.67;1.30;;;;;;;;;;5087515;28;22534;-73
2022/11/18 05:23:32;;;;;;;8.07;2.42;;;;;;;;;;5089267;28;20519;-73
2022/11/18 05:26:06;;;;;;;1.95;1.23;;;;;;;;;;5087868;28;20055;-73
2022/11/18 05:28:31;;;;;;;1.60;0.98;;;;;;;;;;5084321;28;20085;-73
2022/11/18 05:30:56;;;;;;;3.17;1.45;;;;;;;;;;5087361;28;20036;-73
2022/11/18 05:33:22;;;;;;;3.25;1.55;;;;;;;;;;5083911;28;20032;-73
2022/11/18 05:35:47;;;;;;;2.83;1.60;;;;;;;;;;5088857;28;20031;-74
2022/11/18 05:38:12;;;;;;;3.55;1.58;;;;;;;;;;5088661;28;20472;-74
2022/11/18 05:40:38;;;;;;;8.80;1.88;;;;;;;;;;5088384;28;20028;-74
2022/11/18 05:43:12;;;;;;;4.28;1.35;;;;;;;;;;5087482;28;20448;-74
2022/11/18 05:45:42;;;;;;;4.82;1.23;;;;;;;;;;5088213;28;20036;-74
2022/11/18 05:48:08;;;;;;;7.75;1.85;;;;;;;;;;5089147;28;20040;-74
2022/11/18 05:50:36;;;;;;;3.28;1.60;;;;;;;;;;5088635;28;20151;-74
2022/11/18 05:53:03;;;;;;;3.50;1.40;;;;;;;;;;5088605;28;20131;-74
2022/11/18 05:55:34;;;;;;;5.88;1.90;;;;;;;;;;5087723;28;20043;-74
2022/11/18 05:57:59;;;;;;;7.85;1.83;;;;;;;;;;5090229;27;20111;-73
2022/11/18 06:00:24;;;;;;;5.47;1.35;;;;;;;;;;5086202;28;20111;-74
2022/11/18 06:02:53;;;;;;;8.82;1.90;;;;;;;;;;5087708;28;20224;-74
2022/11/18 06:05:19;;;;;;;4.32;1.42;;;;;;;;;;5087775;28;20020;-74
2022/11/18 06:07:45;;;;;;;7.13;1.73;;;;;;;;;;5087739;28;20067;-74
2022/11/18 06:10:33;;;;;;;5.60;1.85;;;;;;;;;;5085536;28;20071;-73
2022/11/18 06:13:05;;;;;;;2.33;1.85;;;;;;;;;;5083156;28;20706;-74
2022/11/18 06:15:35;;;;;;;3.75;1.40;;;;;;;;;;5088289;28;20513;-74
2022/11/18 06:18:06;;;;;;;4.13;1.40;;;;;;;;;;5086960;28;20031;-74
2022/11/18 06:20:33;;;;;;;3.20;1.75;;;;;;;;;;5086924;28;20016;-74
2022/11/18 06:23:00;;;;;;;4.57;1.23;;;;;;;;;;5084669;28;20054;-74
2022/11/18 06:25:26;;;;;;;2.28;1.23;;;;;;;;;;5087142;28;20076;-74
2022/11/18 06:27:54;;;;;;;4.00;1.52;;;;;;;;;;5087183;28;20052;-74
2022/11/18 06:30:20;;;;;;;2.90;1.05;;;;;;;;;;5087879;28;20069;-74
2022/11/18 06:32:45;;;;;;;6.18;1.50;;;;;;;;;;5086631;28;20050;-74
2022/11/18 06:35:10;;;;;;;3.67;1.60;;;;;;;;;;5085687;28;20033;-74
2022/11/18 06:37:36;;;;;;;2.75;1.30;;;;;;;;;;5087823;28;20032;-74
2022/11/18 06:40:02;;;;;;;4.03;1.60;;;;;;;;;;5087425;28;20033;-74
2022/11/18 06:45:11;;;;;;;4.80;1.30;;;;;;;;;;5087458;28;20721;-74
2022/11/18 06:47:36;;;;;;;3.45;1.33;;;;;;;;;;5086842;28;20027;-74
2022/11/18 06:50:02;;;;;;;4.97;2.38;;;;;;;;;;5087673;28;20044;-74
2022/11/18 06:52:28;;;;;;;9.25;1.95;;;;;;;;;;5085590;28;20512;-74
2022/11/18 06:54:53;;;;;;;3.67;1.40;;;;;;;;;;5086723;28;20048;-74
2022/11/18 06:57:18;;;;;;;3.92;1.85;;;;;;;;;;5087390;28;20089;-74
2022/11/18 06:59:43;;;;;;;8.60;1.90;;;;;;;;;;5087562;28;20024;-73
2022/11/18 07:02:09;;;;;;;10.80;2.20;;;;;;;;;;5086183;28;20032;-74
2022/11/18 07:04:38;;;;;;;7.15;1.92;;;;;;;;;;5084138;28;20424;-74
2022/11/18 07:07:04;;;;;;;5.38;1.65;;;;;;;;;;5086959;28;20036;-74
2022/11/18 07:09:29;;;;;;;7.97;1.38;;;;;;;;;;5086922;28;20508;-74
2022/11/18 07:11:55;;;;;;;5.72;1.65;;;;;;;;;;5086649;28;20055;-73
2022/11/18 07:14:20;;;;;;;7.93;1.70;;;;;;;;;;5084731;28;20016;-74
2022/11/18 07:16:46;;;;;;;7.22;1.80;;;;;;;;;;5086861;28;20040;-73
2022/11/18 07:19:12;;;;;;;4.13;1.63;;;;;;;;;;5084098;28;20106;-73
2022/11/18 07:21:38;;;;;;;3.85;1.75;;;;;;;;;;5086614;28;20625;-73
2022/11/18 07:24:06;;;;;;;10.75;1.50;;;;;;;;;;5086915;28;20032;-73
2022/11/18 07:26:32;;;;;;;5.05;1.70;;;;;;;;;;5086605;28;20505;-74
2022/11/18 07:28:57;;;;;;;7.88;2.13;;;;;;;;;;5086138;28;20035;-74
2022/11/18 07:31:22;;;;;;;3.53;1.38;;;;;;;;;;5086748;28;20042;-74
2022/11/18 07:33:48;;;;;;;2.67;1.50;;;;;;;;;;5084041;28;20417;-74
2022/11/18 07:36:14;;;;;;;4.30;1.77;;;;;;;;;;5085235;28;20048;-74
2022/11/18 07:38:41;;;;;;;3.40;2.08;;;;;;;;;;5084207;28;20028;-73
2022/11/18 07:41:09;;;;;;;2.78;1.58;;;;;;;;;;5081149;28;20051;-74
2022/11/18 07:43:35;;;;;;;3.97;1.70;;;;;;;;;;5063665;28;20067;-74
2022/11/18 07:46:27;;;;;;;3.53;1.60;;;;;;;;;;5065162;28;20417;-74
2022/11/18 07:48:55;;;;;;;6.32;1.80;;;;;;;;;;5061352;28;20064;-74
2022/11/18 07:51:23;;;;;;;3.55;1.77;;;;;;;;;;5064831;28;20619;-74
2022/11/18 07:53:49;;;;;;;4.15;1.50;;;;;;;;;;5062785;28;20077;-74
2022/11/18 07:56:15;;;;;;;4.00;1.52;;;;;;;;;;5066451;28;20431;-74
2022/11/18 07:58:41;;;;;;;4.28;1.63;;;;;;;;;;5066167;28;20028;-74
2022/11/18 08:01:12;;;;;;;3.20;1.50;;;;;;;;;;5069041;28;20421;-74
2022/11/18 08:03:38;;;;;;;3.30;1.40;;;;;;;;;;5084698;28;20029;-74
2022/11/18 08:06:06;;;;;;;6.68;2.20;;;;;;;;;;5071030;28;20035;-73
2022/11/18 08:08:31;;;;;;;5.75;1.58;;;;;;;;;;5081582;28;20420;-74
2022/11/18 08:10:58;;;;;;;6.32;1.80;;;;;;;;;;5082452;28;20603;-74
2022/11/18 08:13:24;;;;;;;7.15;1.75;;;;;;;;;;5083056;28;20086;-74
2022/11/18 08:15:50;;;;;;;4.28;1.63;;;;;;;;;;5085492;28;20035;-74
2022/11/18 08:18:16;;;;;;;9.02;2.00;;;;;;;;;;5083309;28;20063;-74
2022/11/18 08:20:41;;;;;;;5.57;1.55;;;;;;;;;;5085872;28;20108;-74
2022/11/18 08:23:07;;;;;;;4.30;1.70;;;;;;;;;;5085024;28;20043;-74
2022/11/18 08:25:32;;;;;;;2.17;1.42;;;;;;;;;;5079889;28;20165;-74
2022/11/18 08:27:57;;;;;;;4.18;1.40;;;;;;;;;;5078884;28;20128;-74
2022/11/18 08:30:23;;;;;;;3.42;1.20;;;;;;;;;;5069956;28;20059;-74
2022/11/18 08:32:48;;;;;;;5.60;1.60;;;;;;;;;;5081211;28;20031;-74
2022/11/18 08:35:13;;;;;;;2.67;1.35;;;;;;;;;;5082253;28;20059;-74
2022/11/18 08:37:39;;;;;;;3.83;1.50;;;;;;;;;;5096029;28;20036;-74
2022/11/18 08:40:05;;;;;;;8.38;1.60;;;;;;;;;;5078065;28;20524;-74
2022/11/18 08:42:30;;;;;;;3.60;1.67;;;;;;;;;;5080785;28;20043;-74
2022/11/18 08:44:55;;;;;;;1.63;1.10;;;;;;;;;;5070147;28;20020;-74
2022/11/18 08:47:21;;;;;;;6.10;1.67;;;;;;;;;;5066270;28;20020;-74
2022/11/18 08:49:46;;;;;;;6.28;1.48;;;;;;;;;;5067813;28;20035;-74
2022/11/18 08:52:11;;;;;;;7.25;1.42;;;;;;;;;;5065903;28;20083;-74
2022/11/18 08:54:37;;;;;;;2.15;1.40;;;;;;;;;;5068021;28;20040;-74
2022/11/18 08:57:02;;;;;;;2.88;1.50;;;;;;;;;;5078621;28;20020;-73
2022/11/18 08:59:27;;;;;;;5.93;1.60;;;;;;;;;;5085262;28;20060;-74
2022/11/18 09:01:52;;;;;;;2.70;1.20;;;;;;;;;;5089104;28;20524;-74
2022/11/18 09:04:18;;;;;;;1.65;1.23;;;;;;;;;;5088937;28;20024;-74
2022/11/18 09:06:43;;;;;;;5.28;1.77;;;;;;;;;;5086570;28;20044;-74
2022/11/18 09:09:09;;;;;;;1.52;1.00;;;;;;;;;;5088666;28;20100;-74
2022/11/18 09:11:34;;;;;;;2.75;1.17;;;;;;;;;;5086502;28;20062;-74
2022/11/18 09:14:00;;;;;;;2.78;1.58;;;;;;;;;;5086690;28;20071;-74
2022/11/18 09:16:28;;;;;;;6.70;1.77;;;;;;;;;;5087728;28;20035;-74
2022/11/18 09:18:55;;;;;;;6.22;1.80;;;;;;;;;;5080484;28;20130;-74
2022/11/18 09:21:20;;;;;;;4.80;1.30;;;;;;;;;;5087577;28;20120;-74
2022/11/18 09:23:46;;;;;;;6.72;1.70;;;;;;;;;;5089201;28;20099;-74
2022/11/18 09:26:14;;;;;;;1.98;1.40;;;;;;;;;;5081404;28;20121;-74
2022/11/18 09:28:39;;;;;;;4.93;1.92;;;;;;;;;;5080317;28;20048;-74
2022/11/18 09:31:12;;;;;;;4.90;1.50;;;;;;;;;;5083585;28;20040;-74
2022/11/18 09:33:38;;;;;;;6.57;1.65;;;;;;;;;;5079420;28;20024;-74
2022/11/18 09:36:10;;;;;;;3.03;1.70;;;;;;;;;;5086896;28;20028;-74
2022/11/18 09:38:35;;;;;;;2.88;1.45;;;;;;;;;;5083088;28;20456;-74
2022/11/18 09:41:12;;;;;;;4.28;1.60;;;;;;;;;;5086755;28;20029;-74
2022/11/18 09:43:56;;;;;;;2.75;1.60;;;;;;;;;;5085091;28;20050;-74
2022/11/18 09:46:39;;;;;;;2.78;1.50;;;;;;;;;;5087284;28;20044;-74
2022/11/18 09:49:13;;;;;;;2.03;1.40;;;;;;;;;;5085035;28;20459;-74
2022/11/18 09:51:45;;;;;;;8.80;2.50;;;;;;;;;;5083383;28;20594;-74
2022/11/18 09:54:16;;;;;;;3.53;1.73;;;;;;;;;;5087145;28;20040;-74
2022/11/18 09:56:41;;;;;;;5.55;1.75;;;;;;;;;;5086403;28;20561;-74
2022/11/18 09:59:12;;;;;;;3.28;1.80;;;;;;;;;;5086931;28;20040;-74
2022/11/18 10:01:37;;;;;;;4.97;1.75;;;;;;;;;;5088711;28;20043;-74
2022/11/18 10:04:03;;;;;;;6.55;2.65;;;;;;;;;;5086022;28;20059;-74
2022/11/18 10:06:32;;;;;;;3.90;1.52;;;;;;;;;;5086692;28;20036;-74
2022/11/18 10:09:05;;;;;;;5.68;1.60;;;;;;;;;;5087082;28;20024;-74
2022/11/18 10:11:40;;;;;;;4.85;1.70;;;;;;;;;;5081786;28;20030;-74
2022/11/18 10:14:23;;;;;;;4.18;1.90;;;;;;;;;;5080605;28;20468;-75
2022/11/18 10:17:07;;;;;;;7.32;2.38;;;;;;;;;;5084226;28;20028;-74
2022/11/18 10:19:58;;;;;;;;;;;;;;;;;;5076786;28;20093;-74
2022/11/18 10:22:37;;;;;;;5.80;2.10;;;;;;;;;;5054559;28;19922;-74
2022/11/18 10:25:11;;;;;;;3.72;1.58;;;;;;;;;;5077523;28;20708;-74
2022/11/18 10:27:39;;;;;;;3.83;1.75;;;;;;;;;;5067241;28;20586;-74
2022/11/18 10:30:24;;;;;;;2.15;1.42;;;;;;;;;;5071180;28;20066;-74
2022/11/18 10:32:55;;;;;;;3.25;1.38;;;;;;;;;;5087730;28;20118;-74
2022/11/18 10:35:28;;;;;;;6.60;1.75;;;;;;;;;;5089480;28;20024;-74
2022/11/18 10:38:02;;;;;;;2.28;1.60;;;;;;;;;;5078884;28;20489;-74
2022/11/18 10:40:29;;;;;;;4.35;1.60;;;;;;;;;;5083938;28;20029;-74
2022/11/18 10:42:55;;;;;;;5.07;2.20;;;;;;;;;;5083788;28;20052;-74
2022/11/18 10:45:20;;;;;;;6.03;2.47;;;;;;;;;;5081559;28;20125;-74
2022/11/18 10:48:02;;;;;;;4.75;1.90;;;;;;;;;;5078580;28;20035;-74
2022/11/18 10:50:33;;;;;;;6.40;1.63;;;;;;;;;;5081752;28;20031;-74
2022/11/18 10:52:59;;;;;;;4.35;2.00;;;;;;;;;;5084883;28;20047;-74
2022/11/18 10:55:26;;;;;;;4.15;1.58;;;;;;;;;;5082767;28;20036;-74
2022/11/18 10:57:59;;;;;;;2.70;1.33;;;;;;;;;;5082749;28;20023;-74
2022/11/18 11:00:38;;;;;;;5.70;1.57;;;;;;;;;;5077937;28;20118;-74
2022/11/18 11:03:30;;;;;;;3.78;1.50;;;;;;;;;;5081606;28;20293;-74
2022/11/18 11:06:14;;;;;;;5.15;1.70;;;;;;;;;;5087171;28;20065;-74
2022/11/18 11:08:48;;;;;;;4.82;1.90;;;;;;;;;;5082763;28;20027;-74
2022/11/18 11:11:27;;;;;;;6.95;2.47;;;;;;;;;;5083645;28;20408;-74
2022/11/18 11:14:20;;;;;;;3.13;1.75;;;;;;;;;;5082063;28;20559;-74
2022/11/18 11:17:09;;;;;;;2.83;1.00;;;;;;;;;;5084968;28;20039;-74
2022/11/18 11:20:02;;;;;;;1.75;1.20;;;;;;;;;;5079114;28;20032;-74
2022/11/18 11:22:28;;;;;;;3.50;1.08;;;;;;;;;;5073359;28;20677;-74
2022/11/18 11:24:55;;;;;;;3.58;1.63;;;;;;;;;;5069700;28;20524;-74
2022/11/18 11:27:48;;;;;;;4.95;1.40;;;;;;;;;;5083193;28;20447;-74
2022/11/18 11:30:18;;;;;;;3.95;1.13;;;;;;;;;;5071113;28;20051;-74
2022/11/18 11:33:08;;;;;;;6.95;1.52;;;;;;;;;;5073760;28;20028;-74
2022/11/18 11:35:42;;;;;;;3.13;1.50;;;;;;;;;;5081250;28;20023;-74
2022/11/18 11:38:26;;;;;;;3.83;1.17;;;;;;;;;;5077274;28;20074;-74
2022/11/18 11:41:01;;;;;;;5.88;1.98;;;;;;;;;;5082344;28;20477;-75
2022/11/18 11:43:42;;;;;;;7.97;1.52;;;;;;;;;;5078900;28;20508;-74
2022/11/18 11:46:34;;;;;;;9.25;1.67;;;;;;;;;;5079899;28;20032;-74
2022/11/18 11:49:20;;;;;;;2.83;1.60;;;;;;;;;;5081004;28;20481;-74
2022/11/18 11:52:04;;;;;;;4.22;1.65;;;;;;;;;;5075152;28;20046;-74
2022/11/18 11:54:46;;;;;;;4.88;1.63;;;;;;;;;;5081841;28;20153;-74
2022/11/18 11:57:34;;;;;;;4.63;1.48;;;;;;;;;;5080932;28;20077;-74
2022/11/18 12:00:08;;;;;;;5.40;1.70;;;;;;;;;;5079354;28;20028;-74
2022/11/18 12:02:48;;;;;;;6.47;1.63;;;;;;;;;;5080792;28;20485;-74
2022/11/18 12:05:20;;;;;;;4.47;1.20;;;;;;;;;;5077600;28;20044;-74
2022/11/18 12:08:23;;;;;;;8.63;1.23;;;;;;;;;;5078893;28;20055;-74
2022/11/18 12:11:19;;;;;;;5.53;1.50;;;;;;;;;;4998398;28;20084;-74
2022/11/18 12:14:01;;;;;;;3.35;1.20;;;;;;;;;;5078198;28;20127;-74
2022/11/18 12:16:41;;;;;;;5.40;1.23;;;;;;;;;;5078028;28;20672;-74
2022/11/18 12:19:13;;;;;;;5.43;1.08;;;;;;;;;;5063677;28;20032;-74
2022/11/18 12:21:45;;;;;;;7.15;1.45;;;;;;;;;;5082118;28;20047;-74
2022/11/18 12:24:29;;;;;;;4.38;1.30;;;;;;;;;;5078672;28;20082;-74
2022/11/18 12:27:09;;;;;;;4.20;1.33;;;;;;;;;;5075590;28;20098;-74
2022/11/18 12:29:55;;;;;;;2.42;1.30;;;;;;;;;;5081449;28;20042;-74
2022/11/18 12:32:45;;;;;;;4.28;1.40;;;;;;;;;;5081737;28;20171;-74
2022/11/18 12:35:10;;;;;;;4.60;1.63;;;;;;;;;;5093464;27;20140;-74
2022/11/18 12:37:43;;;;;;;2.38;1.50;;;;;;;;;;5080693;28;20119;-74
2022/11/18 12:40:29;;;;;;;6.15;1.50;;;;;;;;;;5075624;28;20037;-74
2022/11/18 12:45:42;;;;;;;4.15;1.20;;;;;;;;;;5082299;28;20097;-74
2022/11/18 12:48:25;;;;;;;4.53;1.50;;;;;;;;;;5086660;28;20036;-74
2022/11/18 12:50:54;;;;;;;;;;;;;;;;;;5080977;28;20024;-74
2022/11/18 12:53:40;;;;;;;7.70;1.95;;;;;;;;;;5086458;28;19916;-74
2022/11/18 12:56:32;;;;;;;6.05;1.27;;;;;;;;;;5074266;28;20108;-74
2022/11/18 12:58:59;;;;;;;5.15;1.60;;;;;;;;;;5074804;28;20068;-74
2022/11/18 13:01:28;;;;;;;9.43;1.70;;;;;;;;;;5069897;28;20167;-74
2022/11/18 13:04:11;;;;;;;3.05;1.38;;;;;;;;;;5088713;28;20529;-74
2022/11/18 13:06:37;;;;;;;4.82;1.58;;;;;;;;;;5084461;28;20044;-74
2022/11/18 13:09:11;;;;;;;3.85;1.90;;;;;;;;;;5082097;28;20054;-74
2022/11/18 13:11:50;;;;;;;4.80;1.70;;;;;;;;;;5072730;28;20031;-74
2022/11/18 13:20:26;;;;;;;7.60;1.23;;;;;;;;;;5082354;28;20075;-74
2022/11/18 13:25:45;;;;;;;3.22;1.27;;;;;;;;;;4988087;28;22192;-73
2022/11/18 13:28:29;;;;;;;5.30;1.35;;;;;;;;;;5075323;28;20536;-74
2022/11/18 13:31:04;;;;;;;2.67;1.30;;;;;;;;;;5068685;28;20070;-74
2022/11/18 13:33:35;;;;;;;5.82;1.50;;;;;;;;;;5075286;28;20680;-74
2022/11/18 13:36:01;;;;;;;5.82;2.63;;;;;;;;;;5086374;28;20653;-74
2022/11/18 13:38:26;;;;;;;4.43;1.75;;;;;;;;;;5087234;28;20474;-74
2022/11/18 13:41:05;;;;;;;3.05;1.50;;;;;;;;;;5086066;28;20132;-74
2022/11/18 13:43:31;;;;;;;2.95;1.63;;;;;;;;;;5087000;28;20146;-74
2022/11/18 13:46:05;;;;;;;8.77;2.17;;;;;;;;;;5080281;28;20071;-74
2022/11/18 13:48:34;;;;;;;7.50;2.03;;;;;;;;;;5067226;28;20045;-74
2022/11/18 13:51:00;;;;;;;8.63;1.90;;;;;;;;;;5068435;28;20417;-74
2022/11/18 13:53:29;;;;;;;8.40;1.80;;;;;;;;;;5080477;28;20023;-74
2022/11/18 13:55:58;;;;;;;2.20;1.30;;;;;;;;;;5088950;28;20046;-74
2022/11/18 13:58:43;;;;;;;6.22;1.75;;;;;;;;;;5087230;28;20759;-74
2022/11/18 14:01:21;;;;;;;2.75;1.48;;;;;;;;;;5085717;28;20036;-74
2022/11/18 14:03:52;;;;;;;2.40;1.38;;;;;;;;;;5066178;28;20036;-76
2022/11/18 14:06:25;;;;;;;4.97;1.63;;;;;;;;;;5066102;28;20654;-70
2022/11/18 14:08:51;;;;;;;4.03;1.40;;;;;;;;;;5066836;28;20060;-71
2022/11/18 14:11:34;;;;;;;5.43;1.63;;;;;;;;;;5074450;28;20043;-71
2022/11/18 14:13:59;;;;;;;4.82;1.83;;;;;;;;;;5085471;28;20043;-69
2022/11/18 14:16:32;;;;;;;6.65;1.80;;;;;;;;;;5088527;28;20420;-70
2022/11/18 14:18:58;;;;;;;6.00;1.50;;;;;;;;;;5087889;28;20063;-70
2022/11/18 14:21:27;;;;;;;5.53;1.60;;;;;;;;;;5087565;28;20062;-71
2022/11/18 14:23:53;;;;;;;7.25;1.67;;;;;;;;;;5088446;28;20403;-72
2022/11/18 14:26:29;;;;;;;5.78;1.77;;;;;;;;;;5088228;28;20508;-70
2022/11/18 14:28:56;;;;;;;7.18;2.08;;;;;;;;;;5088176;28;20112;-71
2022/11/18 14:31:26;;;;;;;13.98;2.65;;;;;;;;;;5088094;28;20043;-70
2022/11/18 14:34:22;;;;;;;3.83;1.50;;;;;;;;;;5087754;28;20052;-70
2022/11/18 14:36:49;;;;;;;4.95;2.10;;;;;;;;;;5087082;28;20060;-70
2022/11/18 14:39:20;;;;;;;6.47;2.75;;;;;;;;;;5087938;28;20036;-73
2022/11/18 14:41:46;;;;;;;6.10;2.00;;;;;;;;;;5086766;28;20118;-68
2022/11/18 14:44:12;;;;;;;5.00;1.80;;;;;;;;;;5082967;28;20119;-68
2022/11/18 14:46:38;;;;;;;3.47;1.60;;;;;;;;;;5081435;28;20055;-68
2022/11/18 14:49:08;;;;;;;3.72;1.67;;;;;;;;;;5087053;28;20035;-68
2022/11/18 14:51:34;;;;;;;5.82;1.40;;;;;;;;;;5087210;28;20098;-67
2022/11/18 14:53:59;;;;;;;5.05;2.00;;;;;;;;;;5087883;28;20024;-68
2022/11/18 14:56:29;;;;;;;6.38;1.70;;;;;;;;;;5086927;28;20036;-68
2022/11/18 14:58:54;;;;;;;5.15;1.63;;;;;;;;;;5086448;28;20600;-68
2022/11/18 15:01:20;;;;;;;7.28;1.95;;;;;;;;;;5085291;28;20131;-68
2022/11/18 15:03:46;;;;;;;4.53;1.50;;;;;;;;;;5085109;28;20040;-68
2022/11/18 15:06:16;;;;;;;5.03;1.60;;;;;;;;;;5070374;28;20462;-68
2022/11/18 15:08:43;;;;;;;9.25;2.50;;;;;;;;;;5066521;28;20566;-68
2022/11/18 15:11:08;;;;;;;5.68;2.17;;;;;;;;;;5080037;28;20073;-68
2022/11/18 15:13:34;;;;;;;9.23;2.13;;;;;;;;;;5076218;28;20064;-68
2022/11/18 15:16:01;;;;;;;4.13;1.83;;;;;;;;;;5081458;28;20036;-68
2022/11/18 15:18:26;;;;;;;5.05;2.10;;;;;;;;;;5085382;28;20040;-68
2022/11/18 15:20:52;;;;;;;4.13;1.80;;;;;;;;;;5080110;28;20046;-68
2022/11/18 15:23:17;;;;;;;4.68;1.70;;;;;;;;;;5082361;28;20027;-67
2022/11/18 15:25:42;;;;;;;3.63;1.48;;;;;;;;;;5082794;28;20522;-68